createdAt,value
2022-12-18T00:01:18.331Z,5.32
2022-12-18T00:03:46.048Z,4.90
2022-12-18T00:06:15.686Z,4.85
2022-12-18T00:08:44.145Z,4.80
2022-12-18T00:11:17.616Z,4.50
2022-12-18T00:16:14.960Z,4.40
2022-12-18T00:18:43.395Z,5.05
2022-12-18T00:21:12.816Z,4.60
2022-12-18T00:23:41.884Z,4.63
2022-12-18T00:26:16.229Z,4.20
2022-12-18T00:28:44.791Z,4.55
2022-12-18T00:31:16.681Z,4.90
2022-12-18T00:33:44.238Z,5.40
2022-12-18T00:36:14.499Z,4.90
2022-12-18T00:38:42.295Z,4.78
2022-12-18T00:41:11.512Z,4.68
2022-12-18T00:43:40.080Z,5.10
2022-12-18T00:46:07.596Z,4.38
2022-12-18T00:48:34.706Z,4.40
2022-12-18T00:51:01.681Z,5.15
2022-12-18T00:53:28.915Z,4.55
2022-12-18T00:55:56.852Z,4.55
2022-12-18T00:58:24.064Z,5.10
2022-12-18T01:00:51.124Z,4.97
2022-12-18T01:03:18.339Z,4.63
2022-12-18T01:05:45.339Z,4.78
2022-12-18T01:08:12.440Z,4.15
2022-12-18T01:10:42.739Z,4.63
2022-12-18T01:13:10.090Z,4.70
2022-12-18T01:15:37.336Z,4.82
2022-12-18T01:18:04.543Z,4.60
2022-12-18T01:20:31.560Z,4.47
2022-12-18T01:22:58.912Z,3.83
2022-12-18T01:25:27.707Z,4.53
2022-12-18T01:27:54.716Z,3.95
2022-12-18T01:30:21.813Z,4.45
2022-12-18T01:32:48.906Z,4.28
2022-12-18T01:35:16.148Z,4.40
2022-12-18T01:37:43.162Z,4.13
2022-12-18T01:40:10.929Z,3.65
2022-12-18T01:42:38.194Z,3.90
2022-12-18T01:45:24.644Z,4.05
2022-12-18T01:47:54.872Z,3.22
2022-12-18T01:50:43.253Z,3.55
2022-12-18T01:53:24.922Z,3.13
2022-12-18T01:55:55.747Z,3.38
2022-12-18T01:58:50.636Z,3.38
2022-12-18T02:01:18.038Z,2.88
2022-12-18T02:03:45.552Z,2.70
2022-12-18T02:06:24.726Z,3.05
2022-12-18T02:08:55.848Z,2.92
2022-12-18T02:11:48.950Z,2.70
2022-12-18T02:14:39.500Z,2.70
2022-12-18T02:17:15.158Z,2.40
2022-12-18T02:19:55.231Z,2.30
2022-12-18T02:22:25.216Z,2.65
2022-12-18T02:25:01.385Z,2.53
2022-12-18T02:27:31.984Z,2.53
2022-12-18T02:30:02.905Z,2.33
2022-12-18T02:32:35.512Z,2.58
2022-12-18T02:35:05.933Z,2.92
2022-12-18T02:37:35.300Z,2.30
2022-12-18T02:40:05.473Z,2.40
2022-12-18T02:42:35.491Z,2.50
2022-12-18T02:45:05.575Z,2.55
2022-12-18T02:47:39.472Z,2.45
2022-12-18T02:50:31.282Z,2.67
2022-12-18T02:53:40.688Z,2.40
2022-12-18T02:56:21.014Z,2.70
2022-12-18T02:59:01.104Z,2.38
2022-12-18T03:01:59.945Z,3.05
2022-12-18T03:04:35.506Z,2.42
2022-12-18T03:07:10.240Z,2.65
2022-12-18T03:09:43.286Z,2.25
2022-12-18T03:15:08.976Z,2.88
2022-12-18T03:17:42.999Z,3.25
2022-12-18T03:20:15.963Z,2.60
2022-12-18T03:22:47.657Z,2.67
2022-12-18T03:25:18.741Z,3.00
2022-12-18T03:27:52.612Z,2.50
2022-12-18T03:30:21.291Z,2.65
2022-12-18T03:33:00.526Z,2.83
2022-12-18T03:35:34.617Z,2.53
2022-12-18T03:38:02.272Z,2.60
2022-12-18T03:41:12.573Z,2.97
2022-12-18T03:44:14.244Z,2.50
2022-12-18T03:46:53.649Z,2.72
2022-12-18T03:49:30.887Z,2.40
2022-12-18T03:52:08.456Z,2.78
2022-12-18T03:54:38.304Z,2.38
2022-12-18T03:57:18.000Z,2.65
2022-12-18T04:02:19.042Z,2.40
2022-12-18T04:04:49.182Z,2.60
2022-12-18T04:07:18.297Z,3.30
2022-12-18T04:09:47.197Z,2.90
2022-12-18T04:12:15.498Z,2.55
2022-12-18T04:14:43.012Z,2.50
2022-12-18T04:17:10.815Z,2.60
2022-12-18T04:19:38.033Z,2.70
2022-12-18T04:22:05.205Z,2.20
2022-12-18T04:24:39.709Z,2.67
2022-12-18T04:27:17.257Z,2.60
2022-12-18T04:29:48.810Z,3.40
2022-12-18T04:32:18.721Z,3.88
2022-12-18T04:34:45.876Z,4.15
2022-12-18T04:37:12.901Z,4.43
2022-12-18T04:39:40.266Z,4.60
2022-12-18T04:42:14.566Z,5.22
2022-12-18T04:44:41.680Z,5.10
2022-12-18T04:47:08.828Z,4.90
2022-12-18T04:49:35.892Z,4.32
2022-12-18T04:52:02.996Z,4.35
2022-12-18T04:54:30.101Z,4.97
2022-12-18T04:56:57.253Z,4.47
2022-12-18T04:59:24.287Z,4.15
2022-12-18T05:01:51.703Z,3.67
2022-12-18T05:04:18.971Z,3.97
2022-12-18T05:06:47.081Z,4.13
2022-12-18T05:09:14.320Z,4.40
2022-12-18T05:11:41.461Z,3.60
2022-12-18T05:14:08.438Z,4.07
2022-12-18T05:16:35.453Z,3.60
2022-12-18T05:19:02.491Z,3.20
2022-12-18T05:21:29.677Z,3.78
2022-12-18T05:23:56.815Z,3.53
2022-12-18T05:26:23.910Z,3.83
2022-12-18T05:28:50.996Z,4.35
2022-12-18T05:31:18.214Z,5.80
2022-12-18T05:33:45.478Z,6.25
2022-12-18T05:36:12.837Z,5.18
2022-12-18T05:38:40.760Z,5.68
2022-12-18T05:41:09.134Z,4.43
2022-12-18T05:43:38.715Z,4.22
2022-12-18T05:46:14.159Z,3.70
2022-12-18T05:48:43.024Z,3.42
2022-12-18T05:51:13.557Z,3.80
2022-12-18T05:53:40.815Z,3.15
2022-12-18T05:56:11.151Z,3.35
2022-12-18T05:58:38.850Z,3.15
2022-12-18T06:01:17.926Z,3.13
2022-12-18T06:03:45.874Z,3.75
2022-12-18T06:06:23.371Z,2.92
2022-12-18T06:08:51.622Z,3.05
2022-12-18T06:11:22.538Z,2.97
2022-12-18T06:13:58.178Z,3.17
2022-12-18T06:16:26.683Z,3.22
2022-12-18T06:18:53.901Z,3.53
2022-12-18T06:21:20.923Z,3.60
2022-12-18T06:23:48.121Z,4.05
2022-12-18T06:26:15.482Z,4.55
2022-12-18T06:28:43.050Z,5.63
2022-12-18T06:31:10.875Z,4.38
2022-12-18T06:33:39.549Z,3.80
2022-12-18T06:36:12.668Z,3.95
2022-12-18T06:38:42.440Z,3.95
2022-12-18T06:41:18.900Z,3.47
2022-12-18T06:43:46.340Z,3.30
2022-12-18T06:46:14.294Z,3.00
2022-12-18T06:48:41.884Z,3.35
2022-12-18T06:51:09.065Z,3.08
2022-12-18T06:53:36.325Z,3.25
2022-12-18T06:56:09.926Z,3.45
2022-12-18T06:58:38.763Z,3.40
2022-12-18T07:01:07.898Z,3.20
2022-12-18T07:03:35.432Z,3.63
2022-12-18T07:06:02.833Z,3.90
2022-12-18T07:08:31.222Z,4.25
2022-12-18T07:10:58.478Z,4.57
2022-12-18T07:13:25.493Z,4.40
2022-12-18T07:15:52.570Z,5.20
2022-12-18T07:18:19.713Z,5.70
2022-12-18T07:20:46.662Z,6.05
2022-12-18T07:23:14.820Z,6.00
2022-12-18T07:25:41.971Z,6.78
2022-12-18T07:28:14.135Z,6.13
2022-12-18T07:30:44.271Z,6.35
2022-12-18T07:33:11.274Z,7.22
2022-12-18T07:35:38.411Z,7.00
2022-12-18T07:38:05.412Z,7.28
2022-12-18T07:40:32.601Z,7.05
2022-12-18T07:42:59.768Z,6.93
2022-12-18T07:45:26.936Z,7.88
2022-12-18T07:47:53.996Z,8.15
2022-12-18T07:50:21.109Z,8.75
2022-12-18T07:52:48.125Z,7.60
2022-12-18T07:55:15.084Z,7.53
2022-12-18T07:57:50.524Z,6.95
2022-12-18T08:00:18.828Z,8.68
2022-12-18T08:02:45.942Z,12.63
2022-12-18T08:05:13.304Z,17.80
2022-12-18T08:07:40.732Z,14.02
2022-12-18T08:10:08.429Z,13.77
2022-12-18T08:12:35.492Z,13.70
2022-12-18T08:15:02.780Z,12.15
2022-12-18T08:17:30.152Z,14.05
2022-12-18T08:19:57.229Z,12.25
2022-12-18T08:22:24.480Z,9.90
2022-12-18T08:24:51.605Z,14.95
2022-12-18T08:27:29.261Z,14.52
2022-12-18T08:29:57.662Z,17.95
2022-12-18T08:32:26.445Z,16.90
2022-12-18T08:34:53.595Z,17.15
2022-12-18T08:37:20.759Z,15.98
2022-12-18T08:39:47.826Z,15.23
2022-12-18T08:42:35.162Z,15.93
2022-12-18T08:45:02.971Z,16.17
2022-12-18T08:47:30.001Z,14.23
2022-12-18T08:49:57.091Z,15.15
2022-12-18T08:52:24.017Z,12.77
2022-12-18T08:54:51.108Z,14.15
2022-12-18T08:57:18.072Z,13.82
2022-12-18T08:59:45.112Z,12.70
2022-12-18T09:02:12.974Z,12.80
2022-12-18T09:04:41.755Z,11.93
2022-12-18T09:07:11.037Z,13.45
2022-12-18T09:09:38.453Z,12.07
2022-12-18T09:12:05.721Z,11.82
2022-12-18T09:14:32.769Z,12.00
2022-12-18T09:16:59.931Z,11.55
2022-12-18T09:19:27.085Z,11.23
2022-12-18T09:21:54.101Z,9.77
2022-12-18T09:24:24.106Z,10.02
2022-12-18T09:26:57.846Z,7.75
2022-12-18T09:29:25.238Z,9.35
2022-12-18T09:31:52.340Z,10.27
2022-12-18T09:34:19.577Z,11.70
2022-12-18T09:36:46.552Z,10.73
2022-12-18T09:39:16.001Z,8.43
2022-12-18T09:42:04.436Z,9.18
2022-12-18T09:44:44.488Z,9.55
2022-12-18T09:47:24.745Z,9.55
2022-12-18T09:49:56.353Z,7.82
2022-12-18T09:52:41.798Z,8.77
2022-12-18T09:55:37.464Z,7.60
2022-12-18T09:58:11.070Z,6.97
2022-12-18T10:00:38.161Z,6.25
2022-12-18T10:03:12.059Z,5.93
2022-12-18T10:05:52.858Z,2.83
2022-12-18T10:08:31.260Z,2.67
2022-12-18T10:11:13.303Z,2.72
2022-12-18T10:13:56.044Z,2.60
2022-12-18T10:16:48.971Z,5.05
2022-12-18T10:19:29.505Z,7.43
2022-12-18T10:22:10.856Z,4.10
2022-12-18T10:24:49.799Z,4.38
2022-12-18T10:27:19.487Z,2.80
2022-12-18T10:29:47.408Z,2.70
2022-12-18T10:32:20.974Z,3.40
2022-12-18T10:34:52.963Z,3.60
2022-12-18T10:37:28.025Z,3.28
2022-12-18T10:40:25.377Z,5.00
2022-12-18T10:43:20.427Z,3.30
2022-12-18T10:46:01.339Z,2.22
2022-12-18T10:48:29.888Z,2.58
2022-12-18T10:51:14.144Z,3.08
2022-12-18T10:53:52.722Z,2.17
2022-12-18T10:56:22.349Z,3.33
2022-12-18T10:59:07.767Z,2.97
2022-12-18T11:01:58.366Z,2.78
2022-12-18T11:04:36.423Z,2.97
2022-12-18T11:07:05.143Z,2.53
2022-12-18T11:09:37.006Z,2.58
2022-12-18T11:12:19.898Z,2.70
2022-12-18T11:14:54.997Z,2.30
2022-12-18T11:17:25.908Z,2.50
2022-12-18T11:19:59.535Z,3.08
2022-12-18T11:22:29.204Z,2.85
2022-12-18T11:27:58.040Z,2.47
2022-12-18T11:30:34.981Z,2.20
2022-12-18T11:33:08.323Z,2.40
2022-12-18T11:35:38.401Z,2.83
2022-12-18T11:38:14.161Z,2.40
2022-12-18T11:40:45.230Z,2.63
2022-12-18T11:43:35.301Z,2.97
2022-12-18T11:46:08.538Z,2.30
2022-12-18T11:48:43.494Z,2.05
2022-12-18T11:51:40.821Z,1.90
2022-12-18T11:54:15.827Z,1.70
2022-12-18T11:56:57.726Z,2.35
2022-12-18T11:59:40.360Z,1.40
2022-12-18T12:02:32.147Z,1.50
2022-12-18T12:05:37.067Z,2.20
2022-12-18T12:08:10.897Z,1.95
2022-12-18T12:11:10.287Z,2.15
2022-12-18T12:13:50.381Z,2.00
2022-12-18T12:16:46.178Z,2.40
2022-12-18T12:19:18.930Z,2.17
2022-12-18T12:22:07.709Z,2.08
2022-12-18T12:24:58.969Z,1.83
2022-12-18T12:27:45.032Z,2.40
2022-12-18T12:30:28.250Z,2.00
2022-12-18T12:33:19.215Z,2.20
2022-12-18T12:36:13.637Z,2.60
2022-12-18T12:38:52.317Z,2.58
2022-12-18T12:41:46.812Z,2.85
2022-12-18T12:44:27.778Z,2.58
2022-12-18T12:47:01.103Z,2.88
2022-12-18T12:49:37.551Z,2.78
2022-12-18T12:52:15.191Z,3.03
2022-12-18T12:54:43.370Z,2.95
2022-12-18T12:57:16.370Z,3.17
2022-12-18T12:59:59.311Z,2.72
2022-12-18T13:02:50.943Z,2.60
2022-12-18T13:05:19.112Z,2.80
2022-12-18T13:07:55.792Z,3.25
2022-12-18T13:10:32.881Z,2.58
2022-12-18T13:13:10.609Z,2.75
2022-12-18T13:15:39.874Z,2.92
2022-12-18T13:18:09.953Z,2.95
2022-12-18T13:20:45.610Z,2.58
2022-12-18T13:23:25.594Z,3.17
2022-12-18T13:25:59.947Z,3.55
2022-12-18T13:28:48.741Z,3.40
2022-12-18T13:31:41.960Z,3.03
2022-12-18T13:34:27.503Z,3.45
2022-12-18T13:37:00.703Z,3.58
2022-12-18T13:39:35.766Z,4.00
2022-12-18T13:42:05.818Z,3.00
2022-12-18T13:44:41.799Z,3.10
2022-12-18T13:47:38.566Z,3.30
2022-12-18T13:50:29.860Z,3.42
2022-12-18T13:53:04.260Z,3.03
2022-12-18T13:55:31.206Z,3.05
2022-12-18T13:58:06.260Z,3.33
2022-12-18T14:00:33.550Z,3.20
2022-12-18T14:03:01.648Z,2.70
2022-12-18T14:05:35.570Z,3.17
2022-12-18T14:08:11.305Z,3.22
2022-12-18T14:10:47.731Z,2.70
2022-12-18T14:13:32.877Z,3.17
2022-12-18T14:16:03.909Z,2.47
2022-12-18T14:18:47.378Z,2.97
2022-12-18T14:21:38.949Z,2.75
2022-12-18T14:24:21.837Z,2.83
2022-12-18T14:26:51.363Z,3.28
2022-12-18T14:29:30.536Z,2.10
2022-12-18T14:32:18.303Z,2.33
2022-12-18T14:34:57.417Z,2.67
2022-12-18T14:37:27.332Z,2.40
2022-12-18T14:39:56.480Z,2.30
2022-12-18T14:42:23.762Z,2.20
2022-12-18T14:45:12.525Z,2.35
2022-12-18T14:47:37.945Z,1.70
2022-12-18T14:50:13.362Z,2.38
2022-12-18T14:52:40.551Z,2.20
2022-12-18T14:55:20.199Z,2.20
2022-12-18T14:57:52.537Z,2.10
2022-12-18T15:00:23.573Z,2.27
2022-12-18T15:02:56.860Z,1.77
2022-12-18T15:05:30.321Z,2.28
2022-12-18T15:08:00.640Z,2.88
2022-12-18T15:10:35.485Z,2.00
2022-12-18T15:13:03.747Z,2.35
2022-12-18T15:15:44.500Z,2.50
2022-12-18T15:18:11.808Z,2.50
2022-12-18T15:21:00.096Z,2.53
2022-12-18T15:23:48.899Z,2.30
2022-12-18T15:26:18.143Z,3.13
2022-12-18T15:28:57.208Z,3.28
2022-12-18T15:31:26.509Z,2.83
2022-12-18T15:33:54.050Z,2.70
2022-12-18T15:36:26.392Z,3.22
2022-12-18T15:39:04.032Z,3.38
2022-12-18T15:41:35.803Z,4.13
2022-12-18T15:44:21.828Z,3.22
2022-12-18T15:46:49.159Z,4.50
2022-12-18T15:49:16.166Z,3.90
2022-12-18T15:51:43.691Z,3.95
2022-12-18T15:54:17.208Z,4.20
2022-12-18T15:57:03.105Z,3.80
2022-12-18T15:59:30.197Z,5.28
2022-12-18T16:01:58.027Z,4.00
2022-12-18T16:04:26.341Z,4.15
2022-12-18T16:09:40.634Z,3.70
2022-12-18T16:12:15.309Z,4.57
2022-12-18T16:14:42.314Z,3.60
2022-12-18T16:17:12.790Z,3.50
2022-12-18T16:19:40.504Z,3.47
2022-12-18T16:22:21.663Z,3.35
2022-12-18T16:24:49.356Z,4.32
2022-12-18T16:27:16.471Z,4.00
2022-12-18T16:29:43.852Z,3.88
2022-12-18T16:32:15.549Z,4.03
2022-12-18T16:34:44.809Z,4.10
2022-12-18T16:37:13.849Z,4.45
2022-12-18T16:39:42.291Z,3.83
2022-12-18T16:42:17.618Z,4.97
2022-12-18T16:44:45.841Z,6.90
2022-12-18T16:47:15.116Z,8.25
2022-12-18T16:49:46.072Z,7.50
2022-12-18T16:52:14.405Z,6.90
2022-12-18T16:54:41.414Z,7.28
2022-12-18T16:57:11.796Z,6.53
2022-12-18T16:59:38.775Z,5.80
2022-12-18T17:02:06.331Z,4.65
2022-12-18T17:04:35.136Z,20.30
2022-12-18T17:07:02.187Z,12.65
2022-12-18T17:09:29.232Z,6.28
2022-12-18T17:11:56.394Z,9.05
2022-12-18T17:14:25.375Z,6.90
2022-12-18T17:17:20.396Z,4.85
2022-12-18T17:19:44.231Z,5.82
2022-12-18T17:22:11.561Z,5.97
2022-12-18T17:24:38.784Z,5.10
2022-12-18T17:27:05.974Z,6.80
2022-12-18T17:29:33.158Z,5.32
2022-12-18T17:32:00.552Z,4.97
2022-12-18T17:34:28.326Z,4.35
2022-12-18T17:36:55.988Z,6.03
2022-12-18T17:39:23.132Z,4.60
2022-12-18T17:41:50.740Z,4.32
2022-12-18T17:44:18.612Z,4.50
2022-12-18T17:46:46.395Z,4.82
2022-12-18T17:49:14.736Z,5.07
2022-12-18T17:51:45.112Z,4.38
2022-12-18T17:54:12.314Z,4.03
2022-12-18T17:56:39.857Z,7.40
2022-12-18T17:59:07.330Z,4.53
2022-12-18T18:01:38.375Z,4.57
2022-12-18T18:04:08.244Z,5.15
2022-12-18T18:06:36.268Z,4.60
2022-12-18T18:09:06.497Z,5.72
2022-12-18T18:11:57.763Z,5.15
2022-12-18T18:14:25.915Z,3.97
2022-12-18T18:16:54.771Z,3.15
2022-12-18T18:19:25.238Z,2.58
2022-12-18T18:21:53.927Z,2.75
2022-12-18T18:24:23.694Z,2.75
2022-12-18T18:26:51.000Z,3.03
2022-12-18T18:29:27.844Z,3.10
2022-12-18T18:31:56.555Z,2.58
2022-12-18T18:34:26.814Z,2.40
2022-12-18T18:36:54.396Z,2.47
2022-12-18T18:39:21.535Z,2.08
2022-12-18T18:41:49.095Z,2.20
2022-12-18T18:44:17.785Z,2.38
2022-12-18T18:46:45.278Z,2.47
2022-12-18T18:49:13.938Z,2.78
2022-12-18T18:51:42.519Z,2.30
2022-12-18T18:54:10.303Z,1.98
2022-12-18T18:57:04.000Z,2.00
2022-12-18T18:59:31.276Z,2.25
2022-12-18T19:02:04.277Z,2.30
2022-12-18T19:04:33.892Z,2.28
2022-12-18T19:07:01.304Z,2.03
2022-12-18T19:09:28.631Z,2.50
2022-12-18T19:12:14.763Z,2.72
2022-12-18T19:14:42.446Z,2.35
2022-12-18T19:17:10.913Z,1.60
2022-12-18T19:19:38.037Z,2.70
2022-12-18T19:22:05.332Z,1.80
2022-12-18T19:24:32.452Z,2.20
2022-12-18T19:26:59.408Z,1.92
2022-12-18T19:29:26.368Z,2.58
2022-12-18T19:31:54.788Z,1.90
2022-12-18T19:34:21.764Z,1.80
2022-12-18T19:36:48.969Z,1.92
2022-12-18T19:39:18.071Z,2.00
2022-12-18T19:41:46.753Z,1.95
2022-12-18T19:44:16.064Z,1.95
2022-12-18T19:46:46.911Z,2.38
2022-12-18T19:49:18.114Z,1.95
2022-12-18T19:51:45.665Z,2.55
2022-12-18T19:54:17.088Z,2.10
2022-12-18T19:56:45.166Z,2.30
2022-12-18T19:59:12.728Z,1.98
2022-12-18T20:01:39.953Z,3.15
2022-12-18T20:04:09.077Z,2.20
2022-12-18T20:06:53.534Z,2.25
2022-12-18T20:09:22.146Z,2.08
2022-12-18T20:11:50.166Z,1.98
2022-12-18T20:14:22.788Z,2.03
2022-12-18T20:16:53.729Z,1.98
2022-12-18T20:19:24.957Z,2.40
2022-12-18T20:21:52.116Z,1.85
2022-12-18T20:24:19.424Z,2.30
2022-12-18T20:26:46.604Z,2.22
2022-12-18T20:29:13.790Z,1.98
2022-12-18T20:31:41.197Z,1.58
2022-12-18T20:34:08.446Z,2.28
2022-12-18T20:36:38.610Z,2.30
2022-12-18T20:39:07.648Z,2.53
2022-12-18T20:41:37.665Z,2.00
2022-12-18T20:44:21.665Z,2.67
2022-12-18T20:46:59.528Z,2.45
2022-12-18T20:49:27.950Z,2.42
2022-12-18T20:51:58.187Z,2.50
2022-12-18T20:54:27.417Z,2.42
2022-12-18T20:56:54.981Z,2.25
2022-12-18T20:59:23.385Z,2.50
2022-12-18T21:01:52.418Z,2.10
2022-12-18T21:04:19.866Z,2.75
2022-12-18T21:06:53.346Z,2.42
2022-12-18T21:09:24.066Z,2.35
2022-12-18T21:12:10.368Z,2.67
2022-12-18T21:14:41.625Z,3.45
2022-12-18T21:17:09.408Z,2.35
2022-12-18T21:19:36.688Z,2.95
2022-12-18T21:22:05.017Z,3.05
2022-12-18T21:24:33.001Z,3.67
2022-12-18T21:27:00.310Z,3.90
2022-12-18T21:29:27.872Z,4.10
2022-12-18T21:31:55.394Z,4.43
2022-12-18T21:34:27.746Z,3.83
2022-12-18T21:36:57.451Z,3.77
2022-12-18T21:39:26.540Z,3.42
2022-12-18T21:42:12.578Z,3.75
2022-12-18T21:44:41.840Z,3.10
2022-12-18T21:47:21.488Z,3.30
2022-12-18T21:49:49.834Z,3.70
2022-12-18T21:52:17.399Z,4.22
2022-12-18T21:54:44.367Z,4.10
2022-12-18T21:57:13.629Z,4.10
2022-12-18T21:59:42.697Z,4.75
2022-12-18T22:02:19.781Z,4.60
2022-12-18T22:04:48.130Z,4.22
2022-12-18T22:07:16.728Z,4.30
2022-12-18T22:09:43.826Z,4.70
2022-12-18T22:12:13.885Z,4.88
2022-12-18T22:14:41.087Z,4.85
2022-12-18T22:17:08.238Z,4.95
2022-12-18T22:19:42.615Z,5.00
2022-12-18T22:22:10.326Z,4.72
2022-12-18T22:24:37.431Z,5.90
2022-12-18T22:27:04.642Z,6.75
2022-12-18T22:29:50.414Z,9.05
2022-12-18T22:32:17.841Z,6.25
2022-12-18T22:35:06.937Z,5.85
2022-12-18T22:37:37.024Z,6.70
2022-12-18T22:40:06.070Z,8.38
2022-12-18T22:42:34.475Z,6.75
2022-12-18T22:45:01.544Z,7.93
2022-12-18T22:47:30.426Z,8.50
2022-12-18T22:49:58.404Z,8.35
2022-12-18T22:52:25.876Z,9.15
2022-12-18T22:54:54.433Z,8.48
2022-12-18T22:57:22.822Z,9.63
2022-12-18T22:59:51.094Z,9.13
2022-12-18T23:02:19.286Z,9.05
2022-12-18T23:04:47.810Z,8.95
2022-12-18T23:07:16.247Z,9.68
2022-12-18T23:09:43.267Z,9.13
2022-12-18T23:12:15.717Z,7.72
2022-12-18T23:14:42.737Z,8.33
2022-12-18T23:17:10.158Z,8.30
2022-12-18T23:19:37.503Z,8.00
2022-12-18T23:22:10.092Z,9.07
2022-12-18T23:24:38.863Z,9.02
2022-12-18T23:27:06.523Z,8.23
2022-12-18T23:29:38.517Z,8.50
2022-12-18T23:32:05.581Z,8.00
2022-12-18T23:34:32.643Z,5.90
2022-12-18T23:37:01.268Z,6.57
2022-12-18T23:39:29.627Z,5.82
2022-12-18T23:42:00.969Z,6.40
2022-12-18T23:44:28.364Z,5.90
2022-12-18T23:46:55.644Z,5.45
2022-12-18T23:49:23.440Z,6.00
2022-12-18T23:51:50.900Z,7.22
2022-12-18T23:54:18.935Z,7.72
2022-12-18T23:56:55.445Z,8.48
2022-12-18T23:59:25.457Z,9.30
